Back to Top

Language: 

My Weather Underground Personal Weather Station Historical Data with Graphs...

Delerius Weather Station Historical Data
Daily Summary for October 4, 2017 Units:  English    Metric   Both
« Previous Day
Next Day »
Daily Weekly Monthly Yearly Custom
  High: Low: Average:
Temperature: 55.9 °F 50.9 °F 53 °F
Dew Point: 53.4 °F 44.6 °F 48.1 °F
Humidity: 93 % 78 % 84 %
Wind Speed: 16.0 mph 4.0 mph 10.5 mph
Wind Gust: 30.0 mph - -
Wind:- - WSW
Pressure: 30.17 in 29.75 in -
Precipitation: 0.01 in    
Historical Graphs
 
 
Tabular Data for October 4, 2017
Time Temperature Dew Point Pressure Wind Wind Speed Wind Gust Humidity Rainfall Rate (Hourly) solar Conditions
00:00 52.2 °F 46.2 °F 30.16 in West 7.0 mph 18.0 mph 80 % 0.00 in 0 W/m2
00:05 52.2 °F 46.2 °F 30.16 in WSW 6.0 mph 11.0 mph 80 % 0.00 in 0 W/m2
00:10 52.2 °F 46.2 °F 30.16 in WSW 8.0 mph 15.0 mph 80 % 0.00 in 0 W/m2
00:15 52.2 °F 46.2 °F 30.16 in WSW 9.0 mph 15.0 mph 80 % 0.00 in 0 W/m2
00:25 52.2 °F 46.5 °F 30.16 in West 8.0 mph 15.0 mph 81 % 0.00 in 0 W/m2
00:26 52.2 °F 46.5 °F 30.16 in West 8.0 mph 15.0 mph 81 % 0.00 in 0 W/m2
00:31 52.2 °F 46.5 °F 30.16 in West 9.0 mph 18.0 mph 81 % 0.00 in 0 W/m2
00:36 52.2 °F 46.5 °F 30.17 in West 9.0 mph 18.0 mph 81 % 0.00 in 0 W/m2
00:41 52.2 °F 46.5 °F 30.16 in WSW 10.0 mph 18.0 mph 81 % 0.00 in 0 W/m2
00:46 52.2 °F 46.5 °F 30.16 in West 9.0 mph 18.0 mph 81 % 0.00 in 0 W/m2
00:51 52.0 °F 46.3 °F 30.15 in WSW 7.0 mph 15.0 mph 81 % 0.00 in 0 W/m2
00:56 52.0 °F 46.3 °F 30.15 in WSW 8.0 mph 15.0 mph 81 % 0.00 in 0 W/m2
01:01 52.0 °F 46.0 °F 30.15 in WSW 9.0 mph 19.0 mph 80 % 0.00 in 0 W/m2
01:06 52.0 °F 46.3 °F 30.15 in WSW 9.0 mph 19.0 mph 81 % 0.00 in 0 W/m2
01:11 52.0 °F 46.3 °F 30.15 in WSW 9.0 mph 14.0 mph 81 % 0.00 in 0 W/m2
01:16 52.0 °F 46.3 °F 30.14 in WSW 8.0 mph 14.0 mph 81 % 0.00 in 0 W/m2
01:21 51.8 °F 46.2 °F 30.14 in WSW 7.0 mph 16.0 mph 81 % 0.00 in 0 W/m2
01:31 51.8 °F 46.2 °F 30.13 in WSW 8.0 mph 16.0 mph 81 % 0.00 in 0 W/m2
01:36 51.6 °F 46.0 °F 30.13 in WSW 9.0 mph 16.0 mph 81 % 0.00 in 0 W/m2
01:41 51.6 °F 46.0 °F 30.13 in WSW 7.0 mph 14.0 mph 81 % 0.00 in 0 W/m2
01:46 51.6 °F 46.0 °F 30.13 in WSW 8.0 mph 14.0 mph 81 % 0.00 in 0 W/m2
01:51 51.6 °F 46.0 °F 30.13 in West 9.0 mph 18.0 mph 81 % 0.00 in 0 W/m2
01:56 51.4 °F 45.8 °F 30.13 in West 10.0 mph 20.0 mph 81 % 0.00 in 0 W/m2
02:01 51.4 °F 45.8 °F 30.13 in West 10.0 mph 20.0 mph 81 % 0.00 in 0 W/m2
02:06 51.4 °F 45.8 °F 30.12 in West 12.0 mph 25.0 mph 81 % 0.00 in 0 W/m2
02:11 51.6 °F 46.0 °F 30.12 in West 14.0 mph 25.0 mph 81 % 0.00 in 0 W/m2
02:16 51.6 °F 46.0 °F 30.12 in West 13.0 mph 25.0 mph 81 % 0.00 in 0 W/m2
02:21 51.6 °F 46.0 °F 30.12 in West 13.0 mph 24.0 mph 81 % 0.00 in 0 W/m2
02:26 51.6 °F 46.0 °F 30.12 in West 14.0 mph 24.0 mph 81 % 0.00 in 0 W/m2
02:31 51.6 °F 45.7 °F 30.12 in West 13.0 mph 23.0 mph 80 % 0.00 in 0 W/m2
02:36 51.8 °F 45.8 °F 30.12 in West 14.0 mph 29.0 mph 80 % 0.00 in 0 W/m2
02:41 52.0 °F 46.0 °F 30.12 in West 15.0 mph 30.0 mph 80 % 0.00 in 0 W/m2
02:46 52.0 °F 46.0 °F 30.11 in West 15.0 mph 30.0 mph 80 % 0.00 in 0 W/m2
02:51 52.0 °F 46.0 °F 30.11 in West 14.0 mph 27.0 mph 80 % 0.00 in 0 W/m2
03:01 52.0 °F 46.0 °F 30.11 in West 14.0 mph 29.0 mph 80 % 0.00 in 0 W/m2
03:11 52.0 °F 46.0 °F 30.10 in West 13.0 mph 24.0 mph 80 % 0.00 in 0 W/m2
03:16 52.0 °F 46.0 °F 30.10 in West 15.0 mph 27.0 mph 80 % 0.00 in 0 W/m2
03:21 52.0 °F 46.3 °F 30.10 in West 15.0 mph 27.0 mph 81 % 0.00 in 0 W/m2
03:26 52.0 °F 46.3 °F 30.10 in West 14.0 mph 26.0 mph 81 % 0.00 in 0 W/m2
03:31 52.0 °F 46.3 °F 30.09 in West 16.0 mph 27.0 mph 81 % 0.00 in 0 W/m2
03:36 51.8 °F 46.5 °F 30.10 in West 15.0 mph 27.0 mph 82 % 0.00 in 0 W/m2
03:41 51.6 °F 46.3 °F 30.10 in West 14.0 mph 27.0 mph 82 % 0.00 in 0 W/m2
03:46 51.8 °F 46.5 °F 30.10 in West 14.0 mph 27.0 mph 82 % 0.00 in 0 W/m2
03:51 51.8 °F 46.5 °F 30.10 in West 15.0 mph 24.0 mph 82 % 0.00 in 0 W/m2
03:56 51.6 °F 46.3 °F 30.10 in West 14.0 mph 24.0 mph 82 % 0.00 in 0 W/m2
04:01 51.6 °F 46.3 °F 30.10 in West 12.0 mph 22.0 mph 82 % 0.00 in 0 W/m2
04:06 51.6 °F 46.3 °F 30.10 in West 12.0 mph 22.0 mph 82 % 0.00 in 0 W/m2
04:12 51.6 °F 46.6 °F 30.10 in West 13.0 mph 24.0 mph 83 % 0.00 in 0 W/m2
04:17 51.6 °F 46.6 °F 30.10 in West 14.0 mph 24.0 mph 83 % 0.00 in 0 W/m2
04:22 51.6 °F 46.6 °F 30.10 in West 13.0 mph 23.0 mph 83 % 0.00 in 0 W/m2
04:24 51.6 °F 46.6 °F 30.10 in West 12.0 mph 22.0 mph 83 % 0.00 in 0 W/m2
04:29 51.6 °F 46.6 °F 30.10 in West 12.0 mph 24.0 mph 83 % 0.00 in 0 W/m2
04:33 51.6 °F 46.3 °F 30.10 in West 12.0 mph 24.0 mph 82 % 0.00 in 0 W/m2
04:38 51.6 °F 46.3 °F 30.09 in West 12.0 mph 24.0 mph 82 % 0.00 in 0 W/m2
04:43 51.8 °F 46.5 °F 30.09 in West 11.0 mph 20.0 mph 82 % 0.00 in 0 W/m2
04:48 51.6 °F 46.3 °F 30.09 in WSW 10.0 mph 16.0 mph 82 % 0.00 in 0 W/m2
04:53 51.6 °F 46.3 °F 30.09 in WSW 10.0 mph 16.0 mph 82 % 0.00 in 0 W/m2
04:58 51.4 °F 45.8 °F 30.09 in WSW 11.0 mph 18.0 mph 81 % 0.00 in 0 W/m2
05:03 51.4 °F 45.8 °F 30.09 in WSW 11.0 mph 20.0 mph 81 % 0.00 in 0 W/m2
05:07 51.3 °F 45.6 °F 30.09 in WSW 11.0 mph 20.0 mph 81 % 0.00 in 0 W/m2
05:12 51.1 °F 45.5 °F 30.08 in WSW 10.0 mph 16.0 mph 81 % 0.00 in 0 W/m2
05:17 51.1 °F 45.5 °F 30.08 in WSW 10.0 mph 19.0 mph 81 % 0.00 in 0 W/m2
05:22 51.1 °F 45.5 °F 30.09 in WSW 11.0 mph 19.0 mph 81 % 0.00 in 0 W/m2
05:27 51.1 °F 45.5 °F 30.08 in WSW 12.0 mph 22.0 mph 81 % 0.00 in 0 W/m2
05:32 51.1 °F 45.1 °F 30.08 in WSW 12.0 mph 22.0 mph 80 % 0.00 in 0 W/m2
05:37 51.1 °F 45.1 °F 30.08 in WSW 12.0 mph 21.0 mph 80 % 0.00 in 0 W/m2
05:42 51.1 °F 45.1 °F 30.08 in WSW 11.0 mph 20.0 mph 80 % 0.00 in 0 W/m2
05:48 51.1 °F 45.1 °F 30.08 in WSW 11.0 mph 19.0 mph 80 % 0.00 in 0 W/m2
05:53 51.1 °F 45.1 °F 30.08 in WSW 12.0 mph 20.0 mph 80 % 0.00 in 0 W/m2
05:58 50.9 °F 44.9 °F 30.08 in WSW 11.0 mph 20.0 mph 80 % 0.00 in 0 W/m2
06:03 50.9 °F 44.9 °F 30.08 in West 12.0 mph 20.0 mph 80 % 0.00 in 0 W/m2
06:08 50.9 °F 44.6 °F 30.07 in West 13.0 mph 22.0 mph 79 % 0.00 in 0 W/m2
06:13 51.1 °F 44.8 °F 30.07 in WSW 14.0 mph 22.0 mph 79 % 0.00 in 0 W/m2
06:18 51.1 °F 44.8 °F 30.07 in WSW 13.0 mph 23.0 mph 79 % 0.00 in 0 W/m2
06:23 51.1 °F 44.8 °F 30.07 in WSW 12.0 mph 23.0 mph 79 % 0.00 in 0 W/m2
06:28 50.9 °F 44.9 °F 30.07 in WSW 11.0 mph 18.0 mph 80 % 0.00 in 0 W/m2
06:33 50.9 °F 44.6 °F 30.07 in WSW 11.0 mph 22.0 mph 79 % 0.00 in 0 W/m2
06:38 50.9 °F 44.6 °F 30.08 in WSW 13.0 mph 22.0 mph 79 % 0.00 in 0 W/m2
06:43 50.9 °F 44.6 °F 30.08 in West 12.0 mph 20.0 mph 79 % 0.00 in 0 W/m2
06:48 51.1 °F 44.8 °F 30.08 in West 11.0 mph 20.0 mph 79 % 0.00 in 0 W/m2
06:53 51.1 °F 44.8 °F 30.08 in West 12.0 mph 22.0 mph 79 % 0.00 in 0 W/m2
06:58 51.3 °F 45.0 °F 30.07 in West 13.0 mph 24.0 mph 79 % 0.00 in 0 W/m2
07:03 51.3 °F 44.6 °F 30.06 in WSW 12.0 mph 24.0 mph 78 % 0.00 in 0 W/m2
07:08 51.3 °F 44.6 °F 30.06 in WSW 12.0 mph 20.0 mph 78 % 0.00 in 0 W/m2
07:13 51.3 °F 45.0 °F 30.06 in WSW 13.0 mph 22.0 mph 79 % 0.00 in 0 W/m2
07:18 51.3 °F 45.0 °F 30.06 in WSW 13.0 mph 23.0 mph 79 % 0.00 in 0 W/m2
07:23 51.3 °F 44.6 °F 30.07 in West 14.0 mph 23.0 mph 78 % 0.00 in 5 W/m2
07:28 51.3 °F 45.0 °F 30.07 in West 14.0 mph 22.0 mph 79 % 0.00 in 9 W/m2
07:33 51.3 °F 45.0 °F 30.07 in West 13.0 mph 21.0 mph 79 % 0.00 in 9 W/m2
07:38 51.4 °F 45.1 °F 30.07 in West 12.0 mph 21.0 mph 79 % 0.00 in 11 W/m2
07:43 51.4 °F 44.8 °F 30.07 in WSW 12.0 mph 22.0 mph 78 % 0.00 in 12 W/m2
07:48 51.6 °F 45.0 °F 30.07 in WSW 14.0 mph 23.0 mph 78 % 0.00 in 16 W/m2
07:53 51.6 °F 45.0 °F 30.07 in WSW 14.0 mph 23.0 mph 78 % 0.00 in 21 W/m2
07:58 51.6 °F 45.0 °F 30.07 in West 12.0 mph 22.0 mph 78 % 0.00 in 21 W/m2
08:04 51.6 °F 45.0 °F 30.07 in WSW 13.0 mph 23.0 mph 78 % 0.00 in 21 W/m2
08:09 51.8 °F 45.2 °F 30.07 in WSW 14.0 mph 23.0 mph 78 % 0.00 in 21 W/m2
08:14 51.6 °F 45.0 °F 30.07 in WSW 14.0 mph 28.0 mph 78 % 0.00 in 26 W/m2
08:19 51.6 °F 45.0 °F 30.06 in WSW 14.0 mph 28.0 mph 78 % 0.00 in 39 W/m2
08:24 51.6 °F 45.0 °F 30.07 in WSW 14.0 mph 27.0 mph 78 % 0.00 in 37 W/m2
08:29 51.8 °F 45.5 °F 30.07 in WSW 13.0 mph 22.0 mph 79 % 0.00 in 44 W/m2
08:34 51.8 °F 45.2 °F 30.07 in WSW 12.0 mph 21.0 mph 78 % 0.00 in 30 W/m2
08:39 52.0 °F 45.3 °F 30.07 in WSW 12.0 mph 22.0 mph 78 % 0.00 in 30 W/m2
08:44 52.0 °F 45.3 °F 30.07 in WSW 13.0 mph 24.0 mph 78 % 0.00 in 30 W/m2
08:49 52.0 °F 45.3 °F 30.07 in WSW 14.0 mph 24.0 mph 78 % 0.00 in 30 W/m2
08:54 52.0 °F 45.3 °F 30.08 in WSW 14.0 mph 24.0 mph 78 % 0.00 in 30 W/m2
08:59 51.8 °F 45.5 °F 30.07 in WSW 14.0 mph 24.0 mph 79 % 0.00 in 28 W/m2
09:04 51.8 °F 45.5 °F 30.07 in WSW 13.0 mph 22.0 mph 79 % 0.00 in 39 W/m2
09:09 51.8 °F 45.8 °F 30.07 in WSW 13.0 mph 22.0 mph 80 % 0.00 in 37 W/m2
09:14 51.6 °F 45.7 °F 30.07 in WSW 11.0 mph 22.0 mph 80 % 0.00 in 23 W/m2
09:19 51.6 °F 45.7 °F 30.07 in WSW 11.0 mph 18.0 mph 80 % 0.00 in 35 W/m2
09:24 51.8 °F 45.8 °F 30.07 in WSW 11.0 mph 20.0 mph 80 % 0.00 in 49 W/m2
09:29 52.0 °F 46.0 °F 30.07 in WSW 10.0 mph 20.0 mph 80 % 0.00 in 123 W/m2
09:34 52.2 °F 45.8 °F 30.07 in WSW 10.0 mph 18.0 mph 79 % 0.00 in 49 W/m2
09:39 52.3 °F 46.0 °F 30.07 in WSW 11.0 mph 21.0 mph 79 % 0.00 in 102 W/m2
09:44 52.3 °F 46.0 °F 30.07 in WSW 12.0 mph 24.0 mph 79 % 0.00 in 113 W/m2
09:49 52.5 °F 46.2 °F 30.07 in WSW 12.0 mph 24.0 mph 79 % 0.00 in 67 W/m2
09:54 52.5 °F 46.2 °F 30.07 in WSW 12.0 mph 22.0 mph 79 % 0.00 in 49 W/m2
09:59 52.5 °F 46.2 °F 30.07 in WSW 12.0 mph 20.0 mph 79 % 0.00 in 97 W/m2
10:04 52.5 °F 46.2 °F 30.06 in WSW 11.0 mph 20.0 mph 79 % 0.00 in 84 W/m2
10:09 52.7 °F 46.4 °F 30.06 in WSW 13.0 mph 25.0 mph 79 % 0.00 in 74 W/m2
10:14 52.5 °F 46.2 °F 30.07 in WSW 14.0 mph 25.0 mph 79 % 0.00 in 56 W/m2
10:19 52.5 °F 46.5 °F 30.07 in WSW 13.0 mph 24.0 mph 80 % 0.00 in 86 W/m2
10:20 52.5 °F 46.5 °F 30.07 in WSW 13.0 mph 24.0 mph 80 % 0.00 in 95 W/m2
10:25 52.3 °F 46.4 °F 30.06 in WSW 12.0 mph 22.0 mph 80 % 0.00 in 77 W/m2
10:30 52.2 °F 46.5 °F 30.07 in WSW 13.0 mph 21.0 mph 81 % 0.00 in 97 W/m2
10:35 52.2 °F 46.5 °F 30.07 in WSW 14.0 mph 22.0 mph 81 % 0.00 in 169 W/m2
10:40 52.3 °F 46.7 °F 30.07 in WSW 14.0 mph 22.0 mph 81 % 0.00 in 137 W/m2
10:45 52.3 °F 47.0 °F 30.06 in WSW 13.0 mph 22.0 mph 82 % 0.00 in 116 W/m2
10:50 52.3 °F 47.0 °F 30.06 in WSW 13.0 mph 23.0 mph 82 % 0.00 in 88 W/m2
10:55 52.3 °F 47.0 °F 30.07 in WSW 12.0 mph 23.0 mph 82 % 0.00 in 93 W/m2
11:00 52.3 °F 47.0 °F 30.07 in WSW 12.0 mph 22.0 mph 82 % 0.00 in 100 W/m2
11:05 52.2 °F 47.2 °F 30.06 in WSW 12.0 mph 22.0 mph 83 % 0.00 in 69 W/m2
11:10 52.2 °F 47.2 °F 30.06 in WSW 12.0 mph 20.0 mph 83 % 0.00 in 76 W/m2
11:15 52.0 °F 47.3 °F 30.06 in SW 11.0 mph 19.0 mph 84 % 0.00 in 69 W/m2
11:20 52.0 °F 47.3 °F 30.06 in SW 9.0 mph 18.0 mph 84 % 0.00 in 102 W/m2
11:25 52.2 °F 47.5 °F 30.06 in SW 9.0 mph 18.0 mph 84 % 0.00 in 67 W/m2
11:26 52.2 °F 47.5 °F 30.06 in SW 9.0 mph 18.0 mph 84 % 0.00 in 65 W/m2
11:31 52.3 °F 47.6 °F 30.06 in SW 9.0 mph 16.0 mph 84 % 0.00 in 72 W/m2
11:36 52.3 °F 47.6 °F 30.06 in SW 9.0 mph 16.0 mph 84 % 0.00 in 53 W/m2
11:41 52.5 °F 47.5 °F 30.05 in WSW 9.0 mph 18.0 mph 83 % 0.00 in 67 W/m2
11:46 52.7 °F 47.7 °F 30.06 in WSW 11.0 mph 18.0 mph 83 % 0.00 in 62 W/m2
11:56 52.9 °F 47.9 °F 30.06 in WSW 11.0 mph 19.0 mph 83 % 0.00 in 97 W/m2
12:01 53.1 °F 48.0 °F 30.05 in WSW 11.0 mph 19.0 mph 83 % 0.00 in 114 W/m2
12:06 53.1 °F 48.4 °F 30.05 in WSW 10.0 mph 15.0 mph 84 % 0.00 in 95 W/m2
12:11 53.1 °F 48.4 °F 30.05 in WSW 9.0 mph 14.0 mph 84 % 0.00 in 118 W/m2
12:16 53.2 °F 48.5 °F 30.04 in WSW 8.0 mph 15.0 mph 84 % 0.00 in 195 W/m2
12:21 53.2 °F 48.5 °F 30.05 in WSW 10.0 mph 18.0 mph 84 % 0.00 in 151 W/m2
12:26 53.4 °F 48.7 °F 30.05 in WSW 11.0 mph 18.0 mph 84 % 0.00 in 90 W/m2
12:31 53.4 °F 49.0 °F 30.05 in WSW 11.0 mph 18.0 mph 85 % 0.00 in 86 W/m2
12:36 53.2 °F 49.2 °F 30.05 in WSW 12.0 mph 18.0 mph 86 % 0.00 in 114 W/m2
12:41 53.1 °F 49.3 °F 30.05 in WSW 11.0 mph 18.0 mph 87 % 0.00 in 139 W/m2
12:46 52.9 °F 49.4 °F 30.05 in WSW 10.0 mph 18.0 mph 88 % 0.00 in 95 W/m2
12:51 52.9 °F 49.7 °F 30.06 in WSW 8.0 mph 16.0 mph 89 % 0.00 in 67 W/m2
12:56 52.5 °F 49.4 °F 30.05 in SW 8.0 mph 15.0 mph 89 % 0.00 in 74 W/m2
13:01 52.5 °F 49.4 °F 30.05 in SW 9.0 mph 15.0 mph 89 % 0.00 in 74 W/m2
13:11 52.9 °F 49.7 °F 30.05 in WSW 8.0 mph 15.0 mph 89 % 0.00 in 105 W/m2
13:16 52.9 °F 49.7 °F 30.05 in WSW 8.0 mph 15.0 mph 89 % 0.00 in 128 W/m2
13:21 53.2 °F 49.8 °F 30.05 in WSW 9.0 mph 15.0 mph 88 % 0.00 in 141 W/m2
13:26 53.4 °F 50.0 °F 30.04 in WSW 10.0 mph 15.0 mph 88 % 0.00 in 246 W/m2
13:31 54.0 °F 50.2 °F 30.04 in WSW 11.0 mph 20.0 mph 87 % 0.00 in 220 W/m2
13:36 54.3 °F 50.2 °F 30.04 in WSW 10.0 mph 20.0 mph 86 % 0.00 in 211 W/m2
13:41 54.7 °F 50.3 °F 30.04 in WSW 10.0 mph 20.0 mph 85 % 0.00 in 141 W/m2
13:46 54.9 °F 49.8 °F 30.04 in WSW 12.0 mph 23.0 mph 83 % 0.00 in 160 W/m2
13:56 55.0 °F 49.6 °F 30.03 in WSW 14.0 mph 27.0 mph 82 % 0.00 in 193 W/m2
14:01 55.2 °F 49.8 °F 30.03 in WSW 13.0 mph 27.0 mph 82 % 0.00 in 216 W/m2
14:06 55.2 °F 49.8 °F 30.03 in West 12.0 mph 23.0 mph 82 % 0.00 in 158 W/m2
14:11 55.2 °F 49.8 °F 30.03 in WSW 12.0 mph 23.0 mph 82 % 0.00 in 202 W/m2
14:16 55.2 °F 49.8 °F 30.03 in WSW 11.0 mph 23.0 mph 82 % 0.00 in 192 W/m2
14:21 55.4 °F 50.0 °F 30.03 in West 12.0 mph 23.0 mph 82 % 0.00 in 146 W/m2
14:26 55.6 °F 49.8 °F 30.03 in WSW 13.0 mph 23.0 mph 81 % 0.00 in 155 W/m2
14:31 55.6 °F 49.8 °F 30.03 in WSW 12.0 mph 23.0 mph 81 % 0.00 in 114 W/m2
14:37 55.8 °F 50.0 °F 30.02 in WSW 11.0 mph 20.0 mph 81 % 0.00 in 174 W/m2
14:47 55.2 °F 49.8 °F 30.02 in WSW 12.0 mph 20.0 mph 82 % 0.00 in 153 W/m2
14:52 55.2 °F 50.1 °F 30.02 in WSW 11.0 mph 20.0 mph 83 % 0.00 in 98 W/m2
14:57 55.0 °F 50.0 °F 30.02 in WSW 11.0 mph 23.0 mph 83 % 0.00 in 114 W/m2
15:02 55.0 °F 49.6 °F 30.02 in WSW 13.0 mph 23.0 mph 82 % 0.00 in 120 W/m2
15:07 55.0 °F 49.6 °F 30.02 in WSW 14.0 mph 23.0 mph 82 % 0.00 in 148 W/m2
15:12 55.2 °F 49.8 °F 30.01 in WSW 12.0 mph 23.0 mph 82 % 0.00 in 149 W/m2
15:17 55.2 °F 49.8 °F 30.01 in WSW 11.0 mph 24.0 mph 82 % 0.00 in 102 W/m2
15:22 55.2 °F 49.8 °F 30.01 in WSW 12.0 mph 24.0 mph 82 % 0.00 in 111 W/m2
15:27 55.2 °F 49.5 °F 30.00 in WSW 13.0 mph 23.0 mph 81 % 0.00 in 139 W/m2
15:32 55.4 °F 49.7 °F 30.01 in WSW 13.0 mph 21.0 mph 81 % 0.00 in 109 W/m2
15:37 55.6 °F 49.8 °F 30.01 in West 12.0 mph 21.0 mph 81 % 0.00 in 77 W/m2
15:42 55.6 °F 49.8 °F 30.01 in West 12.0 mph 21.0 mph 81 % 0.00 in 63 W/m2
15:47 55.6 °F 49.8 °F 30.01 in West 12.0 mph 22.0 mph 81 % 0.00 in 60 W/m2
15:48 55.6 °F 49.8 °F 30.01 in West 12.0 mph 22.0 mph 81 % 0.00 in 65 W/m2
15:53 55.4 °F 49.7 °F 30.00 in West 12.0 mph 22.0 mph 81 % 0.00 in 65 W/m2
15:58 55.4 °F 49.7 °F 30.00 in WSW 11.0 mph 19.0 mph 81 % 0.00 in 65 W/m2
16:03 55.4 °F 49.3 °F 30.00 in WSW 12.0 mph 21.0 mph 80 % 0.00 in 81 W/m2
16:08 55.6 °F 49.5 °F 30.00 in WSW 11.0 mph 21.0 mph 80 % 0.00 in 40 W/m2
16:13 55.6 °F 49.8 °F 29.99 in WSW 10.0 mph 16.0 mph 81 % 0.00 in 32 W/m2
16:15 55.6 °F 49.5 °F 30.00 in WSW 11.0 mph 22.0 mph 80 % 0.00 in 33 W/m2
16:20 55.4 °F 49.3 °F 29.99 in West 11.0 mph 23.0 mph 80 % 0.00 in 32 W/m2
16:25 55.4 °F 49.7 °F 29.99 in WSW 10.0 mph 23.0 mph 81 % 0.00 in 46 W/m2
16:30 55.2 °F 49.5 °F 29.99 in WSW 9.0 mph 15.0 mph 81 % 0.00 in 62 W/m2
16:35 55.2 °F 49.5 °F 29.99 in WSW 10.0 mph 19.0 mph 81 % 0.00 in 39 W/m2
16:40 55.4 °F 49.7 °F 29.99 in WSW 11.0 mph 20.0 mph 81 % 0.00 in 37 W/m2
16:50 55.2 °F 49.5 °F 29.98 in WSW 10.0 mph 19.0 mph 81 % 0.00 in 37 W/m2
16:51 55.2 °F 49.5 °F 29.98 in WSW 10.0 mph 19.0 mph 81 % 0.00 in 37 W/m2
16:56 55.4 °F 49.7 °F 29.98 in WSW 10.0 mph 19.0 mph 81 % 0.00 in 21 W/m2
17:01 55.2 °F 49.2 °F 29.98 in WSW 10.0 mph 20.0 mph 80 % 0.00 in 23 W/m2
17:06 55.4 °F 49.3 °F 29.99 in West 10.0 mph 20.0 mph 80 % 0.00 in 21 W/m2
17:11 55.2 °F 49.2 °F 29.98 in West 11.0 mph 19.0 mph 80 % 0.00 in 25 W/m2
17:16 55.2 °F 49.5 °F 29.98 in West 10.0 mph 19.0 mph 81 % 0.00 in 26 W/m2
17:21 55.0 °F 49.3 °F 29.98 in West 9.0 mph 18.0 mph 81 % 0.00 in 37 W/m2
17:26 55.0 °F 49.6 °F 29.98 in West 8.0 mph 14.0 mph 82 % 0.00 in 46 W/m2
17:31 55.0 °F 50.0 °F 29.98 in WSW 6.0 mph 12.0 mph 83 % 0.00 in 19 W/m2
17:36 55.0 °F 50.0 °F 29.98 in SW 6.0 mph 11.0 mph 83 % 0.00 in 11 W/m2
17:41 54.9 °F 50.1 °F 29.98 in SW 7.0 mph 13.0 mph 84 % 0.00 in 9 W/m2
17:44 54.7 °F 49.9 °F 29.98 in SW 7.0 mph 13.0 mph 84 % 0.00 in 14 W/m2
17:49 54.5 °F 50.1 °F 29.97 in WSW 7.0 mph 15.0 mph 85 % 0.00 in 9 W/m2
17:54 54.3 °F 49.9 °F 29.97 in WSW 8.0 mph 15.0 mph 85 % 0.00 in 16 W/m2
17:59 54.1 °F 49.7 °F 29.96 in WSW 8.0 mph 14.0 mph 85 % 0.00 in 12 W/m2
18:04 54.1 °F 49.7 °F 29.96 in WSW 9.0 mph 19.0 mph 85 % 0.00 in 12 W/m2
18:09 54.1 °F 49.7 °F 29.97 in WSW 11.0 mph 19.0 mph 85 % 0.00 in 14 W/m2
18:14 54.0 °F 49.6 °F 29.96 in WSW 11.0 mph 18.0 mph 85 % 0.00 in 9 W/m2
18:19 54.0 °F 49.6 °F 29.96 in WSW 12.0 mph 22.0 mph 85 % 0.00 in 0 W/m2
18:24 54.0 °F 49.9 °F 29.96 in WSW 11.0 mph 22.0 mph 86 % 0.00 in 0 W/m2
18:29 53.8 °F 49.7 °F 29.95 in WSW 10.0 mph 16.0 mph 86 % 0.00 in 0 W/m2
18:34 53.8 °F 49.7 °F 29.95 in WSW 10.0 mph 18.0 mph 86 % 0.00 in 0 W/m2
18:39 53.6 °F 49.5 °F 29.95 in WSW 10.0 mph 18.0 mph 86 % 0.00 in 0 W/m2
18:44 53.6 °F 49.5 °F 29.95 in WSW 9.0 mph 16.0 mph 86 % 0.00 in 0 W/m2
18:49 53.4 °F 49.6 °F 29.95 in SW 9.0 mph 14.0 mph 87 % 0.00 in 0 W/m2
18:55 53.4 °F 49.6 °F 29.95 in SW 8.0 mph 14.0 mph 87 % 0.00 in 0 W/m2
19:00 53.4 °F 49.6 °F 29.95 in SW 8.0 mph 12.0 mph 87 % 0.00 in 0 W/m2
19:05 53.2 °F 49.8 °F 29.94 in SW 8.0 mph 14.0 mph 88 % 0.00 in 0 W/m2
19:10 53.2 °F 49.8 °F 29.95 in SW 8.0 mph 14.0 mph 88 % 0.00 in 0 W/m2
19:15 53.2 °F 50.1 °F 29.94 in SW 8.0 mph 13.0 mph 89 % 0.00 in 0 W/m2
19:16 53.2 °F 50.1 °F 29.94 in SW 8.0 mph 12.0 mph 89 % 0.00 in 0 W/m2
19:21 53.2 °F 50.1 °F 29.94 in SW 7.0 mph 12.0 mph 89 % 0.00 in 0 W/m2
19:26 53.2 °F 50.1 °F 29.94 in SW 6.0 mph 10.0 mph 89 % 0.00 in 0 W/m2
19:31 53.1 °F 49.9 °F 29.94 in SW 6.0 mph 12.0 mph 89 % 0.00 in 0 W/m2
19:36 53.1 °F 49.9 °F 29.94 in WSW 8.0 mph 15.0 mph 89 % 0.00 in 0 W/m2
19:41 53.2 °F 50.1 °F 29.94 in WSW 9.0 mph 15.0 mph 89 % 0.00 in 0 W/m2
19:46 53.2 °F 50.1 °F 29.93 in SW 7.0 mph 15.0 mph 89 % 0.00 in 0 W/m2
19:51 53.2 °F 50.1 °F 29.93 in SW 6.0 mph 10.0 mph 89 % 0.00 in 0 W/m2
19:56 53.2 °F 50.1 °F 29.93 in SSW 6.0 mph 11.0 mph 89 % 0.00 in 0 W/m2
20:01 53.1 °F 49.9 °F 29.92 in SSW 5.0 mph 11.0 mph 89 % 0.00 in 0 W/m2
20:06 53.1 °F 50.2 °F 29.93 in SSW 5.0 mph 9.0 mph 90 % 0.00 in 0 W/m2
20:11 53.1 °F 50.2 °F 29.92 in SSW 4.0 mph 8.0 mph 90 % 0.00 in 0 W/m2
20:16 53.1 °F 50.2 °F 29.92 in SSW 4.0 mph 9.0 mph 90 % 0.00 in 0 W/m2
20:21 52.9 °F 50.0 °F 29.92 in SSW 4.0 mph 9.0 mph 90 % 0.00 in 0 W/m2
20:26 52.9 °F 50.3 °F 29.92 in SSW 5.0 mph 9.0 mph 91 % 0.00 in 0 W/m2
20:31 52.9 °F 50.3 °F 29.92 in SSW 5.0 mph 8.0 mph 91 % 0.00 in 0 W/m2
20:36 52.7 °F 50.1 °F 29.91 in SSW 4.0 mph 9.0 mph 91 % 0.00 in 0 W/m2
20:41 52.7 °F 50.1 °F 29.91 in SSW 4.0 mph 10.0 mph 91 % 0.00 in 0 W/m2
20:46 52.5 °F 50.0 °F 29.90 in SSW 5.0 mph 10.0 mph 91 % 0.00 in 0 W/m2
20:51 52.5 °F 50.3 °F 29.90 in SSW 5.0 mph 9.0 mph 92 % 0.00 in 0 W/m2
20:56 52.5 °F 50.3 °F 29.89 in SSW 6.0 mph 11.0 mph 92 % 0.00 in 0 W/m2
21:01 52.5 °F 50.3 °F 29.89 in SSW 6.0 mph 11.0 mph 92 % 0.00 in 0 W/m2
21:06 52.5 °F 50.3 °F 29.89 in SSW 5.0 mph 10.0 mph 92 % 0.00 in 0 W/m2
21:11 52.5 °F 50.3 °F 29.88 in South 4.0 mph 9.0 mph 92 % 0.00 in 0 W/m2
21:16 52.5 °F 50.3 °F 29.87 in South 5.0 mph 14.0 mph 92 % 0.00 in 0 W/m2
21:21 52.5 °F 50.6 °F 29.87 in South 5.0 mph 14.0 mph 93 % 0.01 in 0 W/m2
21:26 52.5 °F 50.6 °F 29.86 in South 5.0 mph 10.0 mph 93 % 0.01 in 0 W/m2
21:31 52.5 °F 50.6 °F 29.87 in South 6.0 mph 14.0 mph 93 % 0.01 in 0 W/m2
21:36 52.7 °F 50.7 °F 29.86 in SSW 5.0 mph 14.0 mph 93 % 0.01 in 0 W/m2
21:41 52.9 °F 50.9 °F 29.86 in SSW 5.0 mph 11.0 mph 93 % 0.01 in 0 W/m2
21:46 52.9 °F 50.9 °F 29.85 in SSW 6.0 mph 11.0 mph 93 % 0.01 in 0 W/m2
21:51 53.1 °F 51.1 °F 29.84 in SSW 7.0 mph 14.0 mph 93 % 0.01 in 0 W/m2
21:56 53.1 °F 51.1 °F 29.85 in SSW 7.0 mph 14.0 mph 93 % 0.01 in 0 W/m2
22:01 53.2 °F 51.0 °F 29.84 in SSW 7.0 mph 14.0 mph 92 % 0.01 in 0 W/m2
22:06 53.2 °F 51.0 °F 29.83 in SSW 8.0 mph 14.0 mph 92 % 0.01 in 0 W/m2
22:11 53.2 °F 51.0 °F 29.83 in SSW 7.0 mph 14.0 mph 92 % 0.01 in 0 W/m2
22:16 53.4 °F 51.2 °F 29.83 in SSW 8.0 mph 18.0 mph 92 % 0.01 in 0 W/m2
22:21 53.4 °F 51.2 °F 29.82 in SW 9.0 mph 18.0 mph 92 % 0.00 in 0 W/m2
22:26 53.6 °F 51.3 °F 29.82 in SW 8.0 mph 14.0 mph 92 % 0.00 in 0 W/m2
22:31 53.8 °F 51.5 °F 29.82 in SW 8.0 mph 14.0 mph 92 % 0.00 in 0 W/m2
22:36 53.8 °F 51.5 °F 29.81 in SW 8.0 mph 14.0 mph 92 % 0.00 in 0 W/m2
22:41 53.8 °F 51.5 °F 29.80 in SW 9.0 mph 18.0 mph 92 % 0.00 in 0 W/m2
22:46 54.0 °F 51.7 °F 29.80 in SW 11.0 mph 23.0 mph 92 % 0.00 in 0 W/m2
22:52 54.0 °F 51.7 °F 29.80 in SW 11.0 mph 23.0 mph 92 % 0.00 in 0 W/m2
22:57 54.1 °F 51.9 °F 29.80 in SW 10.0 mph 16.0 mph 92 % 0.00 in 0 W/m2
23:02 54.1 °F 51.9 °F 29.79 in SW 10.0 mph 16.0 mph 92 % 0.00 in 0 W/m2
23:07 54.5 °F 52.2 °F 29.79 in SW 12.0 mph 20.0 mph 92 % 0.00 in 0 W/m2
23:12 54.9 °F 52.6 °F 29.78 in SW 12.0 mph 20.0 mph 92 % 0.00 in 0 W/m2
23:17 55.0 °F 52.5 °F 29.77 in WSW 12.0 mph 25.0 mph 91 % 0.00 in 0 W/m2
23:18 55.0 °F 52.5 °F 29.77 in WSW 12.0 mph 25.0 mph 91 % 0.00 in 0 W/m2
23:23 55.2 °F 52.6 °F 29.77 in WSW 13.0 mph 25.0 mph 91 % 0.00 in 0 W/m2
23:28 55.4 °F 52.8 °F 29.77 in SW 12.0 mph 25.0 mph 91 % 0.00 in 0 W/m2
23:33 55.6 °F 53.0 °F 29.77 in SW 13.0 mph 25.0 mph 91 % 0.00 in 0 W/m2
23:38 55.8 °F 53.2 °F 29.76 in WSW 13.0 mph 23.0 mph 91 % 0.00 in 0 W/m2
23:43 55.8 °F 53.2 °F 29.75 in SW 12.0 mph 24.0 mph 91 % 0.00 in 0 W/m2
23:48 55.8 °F 53.2 °F 29.75 in SW 13.0 mph 25.0 mph 91 % 0.00 in 0 W/m2
23:53 55.9 °F 53.4 °F 29.75 in WSW 13.0 mph 25.0 mph 91 % 0.00 in 0 W/m2
23:54 55.9 °F 53.4 °F 29.75 in SW 13.0 mph 25.0 mph 91 % 0.00 in 0 W/m2
23:59 55.9 °F 53.4 °F 29.75 in WSW 12.0 mph 22.0 mph 91 % 0.00 in 0 W/m2
Delerius-Weather
Compliments of Weather Underground - 2.25 mb

Data updates at regular intervals.